createdAt,value
2017-07-29T00:01:49.591Z,16.60
2017-07-29T00:04:17.675Z,16.50
2017-07-29T00:06:45.755Z,16.70
2017-07-29T00:09:13.835Z,16.70
2017-07-29T00:11:41.917Z,16.70
2017-07-29T00:14:10.014Z,16.60
2017-07-29T00:16:38.111Z,16.70
2017-07-29T00:19:06.184Z,16.70
2017-07-29T00:21:34.254Z,16.50
2017-07-29T00:24:02.339Z,16.50
2017-07-29T00:26:30.414Z,16.70
2017-07-29T00:28:58.492Z,16.80
2017-07-29T00:31:26.566Z,16.60
2017-07-29T00:33:54.657Z,16.60
2017-07-29T00:36:22.727Z,16.70
2017-07-29T00:38:50.810Z,16.70
2017-07-29T00:41:18.896Z,16.70
2017-07-29T00:43:47.069Z,16.80
2017-07-29T00:46:15.144Z,16.60
2017-07-29T00:48:43.244Z,16.60
2017-07-29T00:51:11.322Z,16.50
2017-07-29T00:53:39.403Z,16.60
2017-07-29T00:56:07.494Z,16.50
2017-07-29T00:58:35.564Z,16.50
2017-07-29T01:01:03.653Z,16.50
2017-07-29T01:03:31.724Z,16.50
2017-07-29T01:05:59.807Z,16.40
2017-07-29T01:08:27.881Z,16.30
2017-07-29T01:10:55.952Z,16.20
2017-07-29T01:13:24.091Z,16.20
2017-07-29T01:15:52.181Z,16.20
2017-07-29T01:18:20.247Z,16.40
2017-07-29T01:20:48.328Z,16.50
2017-07-29T01:23:16.397Z,16.60
2017-07-29T01:25:44.480Z,16.70
2017-07-29T01:28:12.572Z,16.70
2017-07-29T01:30:40.645Z,16.70
2017-07-29T01:33:08.722Z,16.80
2017-07-29T01:35:36.803Z,16.80
2017-07-29T01:38:04.882Z,16.80
2017-07-29T01:40:32.956Z,16.70
2017-07-29T01:43:01.048Z,16.60
2017-07-29T01:45:29.148Z,16.60
2017-07-29T01:47:57.238Z,16.60
2017-07-29T01:50:25.326Z,16.50
2017-07-29T01:52:53.413Z,16.40
2017-07-29T01:55:21.490Z,16.20
2017-07-29T01:57:49.576Z,16.30
2017-07-29T02:00:17.656Z,16.40
2017-07-29T02:02:45.742Z,16.50
2017-07-29T02:05:13.828Z,16.50
2017-07-29T02:07:41.907Z,16.70
2017-07-29T02:10:09.990Z,16.70
2017-07-29T02:12:38.059Z,16.70
2017-07-29T02:15:06.151Z,16.70
2017-07-29T02:17:34.238Z,16.70
2017-07-29T02:20:02.326Z,16.70
2017-07-29T02:22:30.399Z,16.50
2017-07-29T02:24:58.480Z,16.50
2017-07-29T02:27:26.568Z,16.50
2017-07-29T02:29:54.645Z,16.40
2017-07-29T02:32:22.740Z,16.50
2017-07-29T02:34:50.805Z,16.30
2017-07-29T02:37:18.901Z,16.30
2017-07-29T02:39:46.992Z,16.00
2017-07-29T02:42:15.075Z,16.10
2017-07-29T02:44:43.154Z,16.20
2017-07-29T02:47:11.236Z,16.00
2017-07-29T02:49:39.319Z,16.10
2017-07-29T02:52:07.395Z,16.00
2017-07-29T02:54:35.467Z,15.90
2017-07-29T02:57:03.546Z,16.00
2017-07-29T02:59:31.622Z,16.00
2017-07-29T03:01:59.697Z,16.00
2017-07-29T03:04:27.848Z,16.10
2017-07-29T03:06:55.918Z,16.10
2017-07-29T03:09:23.998Z,16.00
2017-07-29T03:11:52.078Z,16.00
2017-07-29T03:14:20.211Z,16.10
2017-07-29T03:16:48.285Z,15.90
2017-07-29T03:19:16.361Z,15.90
2017-07-29T03:21:44.427Z,16.00
2017-07-29T03:24:12.507Z,15.90
2017-07-29T03:26:40.594Z,15.90
2017-07-29T03:29:08.675Z,15.90
2017-07-29T03:31:36.749Z,15.70
2017-07-29T03:34:04.840Z,15.80
2017-07-29T03:36:32.930Z,15.80
2017-07-29T03:39:01.015Z,15.80
2017-07-29T03:41:29.096Z,15.90
2017-07-29T03:43:57.179Z,15.90
2017-07-29T03:46:25.254Z,15.90
2017-07-29T03:48:53.364Z,15.80
2017-07-29T03:51:21.450Z,15.80
2017-07-29T03:53:49.520Z,15.80
2017-07-29T03:56:17.599Z,15.70
2017-07-29T03:58:45.679Z,15.80
2017-07-29T04:01:13.767Z,15.70
2017-07-29T04:03:41.851Z,15.90
2017-07-29T04:06:09.938Z,16.00
2017-07-29T04:08:38.003Z,15.90
2017-07-29T04:11:06.097Z,15.90
2017-07-29T04:13:34.231Z,15.90
2017-07-29T04:16:02.305Z,16.00
2017-07-29T04:18:30.405Z,16.10
2017-07-29T04:20:58.487Z,16.20
2017-07-29T04:23:26.583Z,16.20
2017-07-29T04:25:54.659Z,16.30
2017-07-29T04:28:22.742Z,16.30
2017-07-29T04:30:50.815Z,16.40
2017-07-29T04:33:18.918Z,16.40
2017-07-29T04:35:46.991Z,16.50
2017-07-29T04:38:15.080Z,16.30
2017-07-29T04:40:43.164Z,16.40
2017-07-29T04:43:11.243Z,16.30
2017-07-29T04:45:39.336Z,16.40
2017-07-29T04:48:07.399Z,16.30
2017-07-29T04:50:35.483Z,16.40
2017-07-29T04:53:03.559Z,16.40
2017-07-29T04:55:31.699Z,16.60
2017-07-29T04:57:59.775Z,16.60
2017-07-29T05:00:27.864Z,16.40
2017-07-29T05:02:55.935Z,16.30
2017-07-29T05:05:24.051Z,16.50
2017-07-29T05:07:52.128Z,16.70
2017-07-29T05:10:20.307Z,16.90
2017-07-29T05:12:48.458Z,16.90
2017-07-29T05:15:16.551Z,16.70
2017-07-29T05:17:44.640Z,16.80
2017-07-29T05:20:12.724Z,16.90
2017-07-29T05:22:40.806Z,16.70
2017-07-29T05:25:08.870Z,16.80
2017-07-29T05:27:36.951Z,16.60
2017-07-29T05:30:05.023Z,16.50
2017-07-29T05:32:33.102Z,16.60
2017-07-29T05:35:01.180Z,17.00
2017-07-29T05:37:29.258Z,17.50
2017-07-29T05:39:57.331Z,17.80
2017-07-29T05:42:25.428Z,17.70
2017-07-29T05:44:53.535Z,18.00
2017-07-29T05:47:21.622Z,17.50
2017-07-29T05:49:49.711Z,17.50
2017-07-29T05:52:17.782Z,17.70
2017-07-29T05:54:45.863Z,17.80
2017-07-29T05:57:14.611Z,18.30
2017-07-29T05:59:42.699Z,18.50
2017-07-29T06:02:10.776Z,18.50
2017-07-29T06:04:38.859Z,18.50
2017-07-29T06:07:06.940Z,18.50
2017-07-29T06:09:35.020Z,18.80
2017-07-29T06:12:03.096Z,18.80
2017-07-29T06:14:31.203Z,18.90
2017-07-29T06:16:59.292Z,19.00
2017-07-29T06:19:27.363Z,19.10
2017-07-29T06:21:55.452Z,19.00
2017-07-29T06:24:23.519Z,19.10
2017-07-29T06:26:51.593Z,19.40
2017-07-29T06:29:19.671Z,19.30
2017-07-29T06:31:47.759Z,19.50
2017-07-29T06:34:15.836Z,19.60
2017-07-29T06:36:43.932Z,19.50
2017-07-29T06:39:12.011Z,19.80
2017-07-29T06:41:40.101Z,20.00
2017-07-29T06:44:08.179Z,20.30
2017-07-29T06:46:36.264Z,20.20
2017-07-29T06:49:04.349Z,20.40
2017-07-29T06:51:32.431Z,20.60
2017-07-29T06:54:00.522Z,20.40
2017-07-29T06:56:28.603Z,20.30
2017-07-29T06:58:56.691Z,20.70
2017-07-29T07:01:24.768Z,20.90
2017-07-29T07:03:52.850Z,20.60
2017-07-29T07:06:20.930Z,21.00
2017-07-29T07:08:49.029Z,21.00
2017-07-29T07:11:17.107Z,21.10
2017-07-29T07:13:45.183Z,21.50
2017-07-29T07:16:13.272Z,21.70
2017-07-29T07:18:41.357Z,21.70
2017-07-29T07:21:09.435Z,21.80
2017-07-29T07:23:37.503Z,22.00
2017-07-29T07:26:05.592Z,21.90
2017-07-29T07:28:33.707Z,22.00
2017-07-29T07:31:01.800Z,21.90
2017-07-29T07:33:29.961Z,21.90
2017-07-29T07:35:58.031Z,22.30
2017-07-29T07:38:26.108Z,22.60
2017-07-29T07:40:54.183Z,22.50
2017-07-29T07:43:22.255Z,22.70
2017-07-29T07:45:50.351Z,22.30
2017-07-29T07:48:18.425Z,22.50
2017-07-29T07:50:46.505Z,22.40
2017-07-29T07:53:14.595Z,22.40
2017-07-29T07:55:42.670Z,22.20
2017-07-29T07:58:10.753Z,22.60
2017-07-29T08:00:38.841Z,22.70
2017-07-29T08:03:06.928Z,22.70
2017-07-29T08:05:35.005Z,23.20
2017-07-29T08:08:03.078Z,23.00
2017-07-29T08:10:31.169Z,22.40
2017-07-29T08:13:00.119Z,22.30
2017-07-29T08:15:28.217Z,22.30
2017-07-29T08:17:56.298Z,21.90
2017-07-29T08:20:24.378Z,22.50
2017-07-29T08:22:52.452Z,23.00
2017-07-29T08:25:20.540Z,22.70
2017-07-29T08:27:48.624Z,22.40
2017-07-29T08:30:16.715Z,22.30
2017-07-29T08:32:45.474Z,22.10
2017-07-29T08:35:13.560Z,22.20
2017-07-29T08:37:41.639Z,22.80
2017-07-29T08:40:09.728Z,23.10
2017-07-29T08:42:37.807Z,22.80
2017-07-29T08:45:05.887Z,22.30
2017-07-29T08:47:33.964Z,22.20
2017-07-29T08:50:02.051Z,22.10
2017-07-29T08:52:30.119Z,21.90
2017-07-29T08:54:58.194Z,21.80
2017-07-29T08:57:26.521Z,21.70
2017-07-29T08:59:54.620Z,21.70
2017-07-29T09:02:23.607Z,21.60
2017-07-29T09:04:51.890Z,21.60
2017-07-29T09:07:19.974Z,21.60
2017-07-29T09:09:48.099Z,21.80
2017-07-29T09:12:16.195Z,21.70
2017-07-29T09:14:44.266Z,22.10
2017-07-29T09:17:12.351Z,22.40
2017-07-29T09:19:40.420Z,21.90
2017-07-29T09:22:08.513Z,21.90
2017-07-29T09:24:36.587Z,22.30
2017-07-29T09:27:04.658Z,22.20
2017-07-29T09:29:32.748Z,22.50
2017-07-29T09:32:00.828Z,22.60
2017-07-29T09:34:28.909Z,22.90
2017-07-29T09:36:56.980Z,23.10
2017-07-29T09:39:25.060Z,23.30
2017-07-29T09:41:53.143Z,23.10
2017-07-29T09:44:21.227Z,23.30
2017-07-29T09:46:49.303Z,23.10
2017-07-29T09:49:17.420Z,23.60
2017-07-29T09:51:45.513Z,23.00
2017-07-29T09:54:13.671Z,23.50
2017-07-29T09:56:41.750Z,24.90
2017-07-29T09:59:09.830Z,24.50
2017-07-29T10:01:37.919Z,24.80
2017-07-29T10:04:05.992Z,25.70
2017-07-29T10:06:34.090Z,26.60
2017-07-29T10:09:02.179Z,25.20
2017-07-29T10:11:30.268Z,25.30
2017-07-29T10:13:58.349Z,25.30
2017-07-29T10:16:26.439Z,26.10
2017-07-29T10:18:54.520Z,27.10
2017-07-29T10:21:22.606Z,27.60
2017-07-29T10:23:50.687Z,26.70
2017-07-29T10:26:18.774Z,25.20
2017-07-29T10:28:46.856Z,25.30
2017-07-29T10:31:14.923Z,25.30
2017-07-29T10:33:43.016Z,26.00
2017-07-29T10:36:11.096Z,25.60
2017-07-29T10:38:39.185Z,25.10
2017-07-29T10:41:07.415Z,25.50
2017-07-29T10:43:35.776Z,25.50
2017-07-29T10:46:03.857Z,26.90
2017-07-29T10:48:31.947Z,28.40
2017-07-29T10:51:00.028Z,29.30
2017-07-29T10:53:28.119Z,27.80
2017-07-29T10:55:56.209Z,29.20
2017-07-29T10:58:24.275Z,27.90
2017-07-29T11:00:52.364Z,26.60
2017-07-29T11:03:20.441Z,27.80
2017-07-29T11:05:48.526Z,27.40
2017-07-29T11:08:16.605Z,26.10
2017-07-29T11:10:44.682Z,26.40
2017-07-29T11:13:12.763Z,27.10
2017-07-29T11:15:40.859Z,26.90
2017-07-29T11:18:08.935Z,27.80
2017-07-29T11:20:37.027Z,26.50
2017-07-29T11:23:05.115Z,26.40
2017-07-29T11:25:33.198Z,26.70
2017-07-29T11:28:01.267Z,27.70
2017-07-29T11:30:29.348Z,29.40
2017-07-29T11:32:57.439Z,28.90
2017-07-29T11:35:25.528Z,27.40
2017-07-29T11:37:53.611Z,27.90
2017-07-29T11:40:21.695Z,27.80
2017-07-29T11:42:49.780Z,27.00
2017-07-29T11:45:17.856Z,26.50
2017-07-29T11:47:45.944Z,27.50
2017-07-29T11:50:14.012Z,27.90
2017-07-29T11:52:42.082Z,28.30
2017-07-29T11:55:10.164Z,28.30
2017-07-29T11:57:38.235Z,29.10
2017-07-29T12:00:06.325Z,27.80
2017-07-29T12:02:34.386Z,28.20
2017-07-29T12:05:02.467Z,27.80
2017-07-29T12:07:30.544Z,28.50
2017-07-29T12:09:58.639Z,29.60
2017-07-29T12:12:26.927Z,29.40
2017-07-29T12:14:55.044Z,29.30
2017-07-29T12:17:23.131Z,29.00
2017-07-29T12:19:51.211Z,29.00
2017-07-29T12:22:19.285Z,28.50
2017-07-29T12:24:47.357Z,28.10
2017-07-29T12:27:15.441Z,27.70
2017-07-29T12:29:43.509Z,28.20
2017-07-29T12:32:11.587Z,27.90
2017-07-29T12:34:39.663Z,28.70
2017-07-29T12:37:07.747Z,27.60
2017-07-29T12:39:35.819Z,28.50
2017-07-29T12:42:03.914Z,28.70
2017-07-29T12:44:32.092Z,29.10
2017-07-29T12:47:00.159Z,29.00
2017-07-29T12:49:28.242Z,28.40
2017-07-29T12:51:56.322Z,28.60
2017-07-29T12:54:24.421Z,28.90
2017-07-29T12:56:52.608Z,29.10
2017-07-29T12:59:20.704Z,30.10
2017-07-29T13:01:48.951Z,29.70
2017-07-29T13:04:17.120Z,28.50
2017-07-29T13:06:45.202Z,28.60
2017-07-29T13:09:13.283Z,28.60
2017-07-29T13:11:42.139Z,27.50
2017-07-29T13:14:10.223Z,27.40
2017-07-29T13:16:38.304Z,28.50
2017-07-29T13:19:06.398Z,29.60
2017-07-29T13:21:34.487Z,28.50
2017-07-29T13:24:02.563Z,28.70
2017-07-29T13:26:30.646Z,29.00
2017-07-29T13:28:58.723Z,29.80
2017-07-29T13:31:26.823Z,30.20
2017-07-29T13:33:54.904Z,28.70
2017-07-29T13:36:22.975Z,29.30
2017-07-29T13:38:51.059Z,29.50
2017-07-29T13:41:19.135Z,29.30
2017-07-29T13:43:47.206Z,28.80
2017-07-29T13:46:15.295Z,28.50
2017-07-29T13:48:43.378Z,28.40
2017-07-29T13:51:11.452Z,28.60
2017-07-29T13:53:39.538Z,28.20
2017-07-29T13:56:08.619Z,28.10
2017-07-29T13:58:36.715Z,27.80
2017-07-29T14:01:04.791Z,27.60
2017-07-29T14:03:32.877Z,27.80
2017-07-29T14:06:00.956Z,27.90
2017-07-29T14:08:29.031Z,27.70
2017-07-29T14:10:57.132Z,28.40
2017-07-29T14:13:25.202Z,26.90
2017-07-29T14:15:53.288Z,27.20
2017-07-29T14:18:21.359Z,27.20
2017-07-29T14:20:49.460Z,26.70
2017-07-29T14:23:17.540Z,27.20
2017-07-29T14:25:45.628Z,27.60
2017-07-29T14:28:13.694Z,27.40
2017-07-29T14:30:41.766Z,27.40
2017-07-29T14:33:09.864Z,27.10
2017-07-29T14:35:37.955Z,26.90
2017-07-29T14:38:06.040Z,26.80
2017-07-29T14:40:34.114Z,27.10
2017-07-29T14:43:02.212Z,27.00
2017-07-29T14:45:30.278Z,27.20
2017-07-29T14:47:58.357Z,27.30
2017-07-29T14:50:26.440Z,27.50
2017-07-29T14:52:54.529Z,27.40
2017-07-29T14:55:22.600Z,27.80
2017-07-29T14:57:50.680Z,27.50
2017-07-29T15:00:18.767Z,27.60
2017-07-29T15:02:46.856Z,27.30
2017-07-29T15:05:14.946Z,27.40
2017-07-29T15:07:43.023Z,27.40
2017-07-29T15:10:11.123Z,27.20
2017-07-29T15:12:39.203Z,27.10
2017-07-29T15:15:07.297Z,27.30
2017-07-29T15:17:35.379Z,26.80
2017-07-29T15:20:03.455Z,26.50
2017-07-29T15:22:31.535Z,26.90
2017-07-29T15:24:59.629Z,26.40
2017-07-29T15:27:27.700Z,26.40
2017-07-29T15:29:55.777Z,26.40
2017-07-29T15:32:23.854Z,26.30
2017-07-29T15:34:51.931Z,26.30
2017-07-29T15:37:20.010Z,26.30
2017-07-29T15:39:48.090Z,26.50
2017-07-29T15:42:16.171Z,26.40
2017-07-29T15:44:44.258Z,26.40
2017-07-29T15:47:12.334Z,26.40
2017-07-29T15:49:40.463Z,26.60
2017-07-29T15:52:08.554Z,26.70
2017-07-29T15:54:36.643Z,26.50
2017-07-29T15:57:04.730Z,26.30
2017-07-29T15:59:32.802Z,26.30
2017-07-29T16:02:00.891Z,26.20
2017-07-29T16:04:28.983Z,26.10
2017-07-29T16:06:57.059Z,26.10
2017-07-29T16:09:25.153Z,26.20
2017-07-29T16:11:53.229Z,26.00
2017-07-29T16:14:21.324Z,26.10
2017-07-29T16:16:49.385Z,26.10
2017-07-29T16:19:17.465Z,26.10
2017-07-29T16:21:45.552Z,26.00
2017-07-29T16:24:13.736Z,25.70
2017-07-29T16:26:41.880Z,25.90
2017-07-29T16:29:09.972Z,25.90
2017-07-29T16:31:38.077Z,25.90
2017-07-29T16:34:06.159Z,25.90
2017-07-29T16:36:34.244Z,25.90
2017-07-29T16:39:02.341Z,25.90
2017-07-29T16:41:30.421Z,25.90
2017-07-29T16:43:58.520Z,25.80
2017-07-29T16:46:26.597Z,25.60
2017-07-29T16:48:54.678Z,25.60
2017-07-29T16:51:22.758Z,25.90
2017-07-29T16:53:50.939Z,25.70
2017-07-29T16:56:19.042Z,25.80
2017-07-29T16:58:47.111Z,25.70
2017-07-29T17:01:15.203Z,25.50
2017-07-29T17:03:43.274Z,25.40
2017-07-29T17:06:11.355Z,25.50
2017-07-29T17:08:39.432Z,25.40
2017-07-29T17:11:07.508Z,25.50
2017-07-29T17:13:35.591Z,25.40
2017-07-29T17:16:03.664Z,25.40
2017-07-29T17:18:31.750Z,25.50
2017-07-29T17:20:59.831Z,25.60
2017-07-29T17:23:27.926Z,25.60
2017-07-29T17:25:55.993Z,25.70
2017-07-29T17:28:24.084Z,25.50
2017-07-29T17:30:52.155Z,25.30
2017-07-29T17:33:20.231Z,25.30
2017-07-29T17:35:48.306Z,25.30
2017-07-29T17:38:16.456Z,25.30
2017-07-29T17:40:44.532Z,25.30
2017-07-29T17:43:12.608Z,25.30
2017-07-29T17:45:40.683Z,25.30
2017-07-29T17:48:08.759Z,25.30
2017-07-29T17:50:36.839Z,25.40
2017-07-29T17:53:04.914Z,25.40
2017-07-29T17:55:33.005Z,25.50
2017-07-29T17:58:01.273Z,25.50
2017-07-29T18:00:29.328Z,25.60
2017-07-29T18:02:57.423Z,25.80
2017-07-29T18:05:25.482Z,26.00
2017-07-29T18:07:53.554Z,26.30
2017-07-29T18:10:21.679Z,26.50
2017-07-29T18:12:49.759Z,26.60
2017-07-29T18:15:17.843Z,26.60
2017-07-29T18:17:45.931Z,26.60
2017-07-29T18:20:14.007Z,26.30
2017-07-29T18:22:42.100Z,25.90
2017-07-29T18:25:10.182Z,25.70
2017-07-29T18:27:38.290Z,25.60
2017-07-29T18:30:06.375Z,25.40
2017-07-29T18:32:34.466Z,25.30
2017-07-29T18:35:02.627Z,24.90
2017-07-29T18:37:30.711Z,24.80
2017-07-29T18:39:58.777Z,24.80
2017-07-29T18:42:26.842Z,24.80
2017-07-29T18:44:54.934Z,24.80
2017-07-29T18:47:23.008Z,24.80
2017-07-29T18:49:51.088Z,24.60
2017-07-29T18:52:19.155Z,24.60
2017-07-29T18:54:47.240Z,24.50
2017-07-29T18:57:15.307Z,24.30
2017-07-29T18:59:43.641Z,24.20
2017-07-29T19:02:11.763Z,24.10
2017-07-29T19:04:39.893Z,24.00
2017-07-29T19:07:07.979Z,23.70
2017-07-29T19:09:36.080Z,23.70
2017-07-29T19:12:04.166Z,23.60
2017-07-29T19:14:32.267Z,23.50
2017-07-29T19:17:00.342Z,23.40
2017-07-29T19:19:28.438Z,23.40
2017-07-29T19:21:56.535Z,23.20
2017-07-29T19:24:24.611Z,23.10
2017-07-29T19:26:52.699Z,23.10
2017-07-29T19:29:20.786Z,22.90
2017-07-29T19:31:48.866Z,23.00
2017-07-29T19:34:16.951Z,22.80
2017-07-29T19:36:45.027Z,22.80
2017-07-29T19:39:13.107Z,22.70
2017-07-29T19:41:41.189Z,22.60
2017-07-29T19:44:09.651Z,22.50
2017-07-29T19:46:38.053Z,22.60
2017-07-29T19:49:06.522Z,22.60
2017-07-29T19:51:34.627Z,22.50
2017-07-29T19:54:02.717Z,22.40
2017-07-29T19:56:30.809Z,22.50
2017-07-29T19:58:58.908Z,22.40
2017-07-29T20:01:26.975Z,22.50
2017-07-29T20:03:55.059Z,22.40
2017-07-29T20:06:23.135Z,22.30
2017-07-29T20:08:51.215Z,22.20
2017-07-29T20:11:19.291Z,22.20
2017-07-29T20:13:47.383Z,21.90
2017-07-29T20:16:15.455Z,21.90
2017-07-29T20:18:43.582Z,21.90
2017-07-29T20:21:11.743Z,21.80
2017-07-29T20:23:39.833Z,21.70
2017-07-29T20:26:08.105Z,21.70
2017-07-29T20:28:36.189Z,21.70
2017-07-29T20:31:04.446Z,21.50
2017-07-29T20:33:32.522Z,21.40
2017-07-29T20:36:00.792Z,21.70
2017-07-29T20:38:28.868Z,21.70
2017-07-29T20:40:56.955Z,21.60
2017-07-29T20:43:25.039Z,21.60
2017-07-29T20:45:53.263Z,21.50
2017-07-29T20:48:21.413Z,21.50
2017-07-29T20:50:49.511Z,21.50
2017-07-29T20:53:17.595Z,21.50
2017-07-29T20:55:46.573Z,21.60
2017-07-29T20:58:14.667Z,21.60
2017-07-29T21:00:42.730Z,21.50
2017-07-29T21:03:10.811Z,21.50
2017-07-29T21:05:38.893Z,21.50
2017-07-29T21:08:06.976Z,21.40
2017-07-29T21:10:35.062Z,21.40
2017-07-29T21:13:03.147Z,21.40
2017-07-29T21:15:31.274Z,21.40
2017-07-29T21:17:59.584Z,21.40
2017-07-29T21:20:27.725Z,21.10
2017-07-29T21:22:56.122Z,21.10
2017-07-29T21:25:24.250Z,21.10
2017-07-29T21:27:52.324Z,21.10
2017-07-29T21:30:20.407Z,21.10
2017-07-29T21:32:48.482Z,21.00
2017-07-29T21:35:16.574Z,21.10
2017-07-29T21:37:44.654Z,20.80
2017-07-29T21:40:12.745Z,20.80
2017-07-29T21:42:40.927Z,20.80
2017-07-29T21:45:09.196Z,20.80
2017-07-29T21:47:37.351Z,20.90
2017-07-29T21:50:05.448Z,20.90
2017-07-29T21:52:34.293Z,20.70
2017-07-29T21:55:02.384Z,20.70
2017-07-29T21:57:30.574Z,20.80
2017-07-29T21:59:58.647Z,20.90
2017-07-29T22:02:26.740Z,20.70
2017-07-29T22:04:55.191Z,20.70
2017-07-29T22:07:23.283Z,20.70
2017-07-29T22:09:51.372Z,20.70
2017-07-29T22:12:19.474Z,20.70
2017-07-29T22:14:47.554Z,20.80
2017-07-29T22:17:15.647Z,20.80
2017-07-29T22:19:43.730Z,20.70
2017-07-29T22:22:11.822Z,20.70
2017-07-29T22:24:39.913Z,20.70
2017-07-29T22:27:07.993Z,20.70
2017-07-29T22:29:36.074Z,20.70
2017-07-29T22:32:04.158Z,20.60
2017-07-29T22:34:32.258Z,20.40
2017-07-29T22:37:00.347Z,20.40
2017-07-29T22:39:28.447Z,20.40
2017-07-29T22:41:56.521Z,20.10
2017-07-29T22:44:24.607Z,20.10
2017-07-29T22:46:52.679Z,20.10
2017-07-29T22:49:20.765Z,19.80
2017-07-29T22:51:48.849Z,19.80
2017-07-29T22:54:17.007Z,19.90
2017-07-29T22:56:45.224Z,19.70
2017-07-29T22:59:13.302Z,19.50
2017-07-29T23:01:41.385Z,19.50
2017-07-29T23:04:09.476Z,19.60
2017-07-29T23:06:37.564Z,19.30
2017-07-29T23:09:05.633Z,19.40
2017-07-29T23:11:33.711Z,19.60
2017-07-29T23:14:01.780Z,19.50
2017-07-29T23:16:29.860Z,19.60
2017-07-29T23:18:57.941Z,19.40
2017-07-29T23:21:26.024Z,19.30
2017-07-29T23:23:54.097Z,19.20
2017-07-29T23:26:22.177Z,19.40
2017-07-29T23:28:50.263Z,19.30
2017-07-29T23:31:18.344Z,19.30
2017-07-29T23:33:46.434Z,19.30
2017-07-29T23:36:14.510Z,19.30
2017-07-29T23:38:42.596Z,19.20
2017-07-29T23:41:10.676Z,19.10
2017-07-29T23:43:38.756Z,19.20
2017-07-29T23:46:06.829Z,19.30
2017-07-29T23:48:34.914Z,19.40
2017-07-29T23:51:02.989Z,19.30
2017-07-29T23:53:31.078Z,19.40
2017-07-29T23:55:59.367Z,19.40
2017-07-29T23:58:27.461Z,19.40
